Time;durP1;ratioP1;P1;durP2;ratioP2;P2;SDS_P1;SDS_P2;PMS_P1;PMS_P2;Temp;Humidity;BMP_temperature;BMP_pressure;BME280_temperature;BME280_humidity;BME280_pressure;Samples;Min_cycle;Max_cycle;Signal;HPM_P1;HPM_P2
2022/11/24 00:00:38;;;;;;;46.73;27.90;;;-0.10;99.90;-1.20;99735;;;;568089;251;24090;-78
2022/11/24 00:03:08;;;;;;;51.20;31.20;;;-0.20;99.90;-1.10;99741;;;;568460;251;24116;-82
2022/11/24 00:05:37;;;;;;;45.77;28.70;;;-0.20;99.90;-1.20;99741;;;;568120;251;24114;-83
2022/11/24 00:08:05;;;;;;;52.28;32.95;;;-0.10;99.90;-1.10;99737;;;;563551;252;35257;-81
2022/11/24 00:10:33;;;;;;;49.40;29.47;;;-0.10;99.90;-1.10;99748;;;;568004;253;24192;-80
2022/11/24 00:13:01;;;;;;;50.00;27.77;;;-0.20;99.90;-1.10;99734;;;;567780;249;24116;-79
2022/11/24 00:15:28;;;;;;;48.57;29.47;;;-0.10;99.90;-1.10;99742;;;;567801;251;24101;-80
2022/11/24 00:17:57;;;;;;;50.70;30.37;;;-0.10;99.90;-1.10;99738;;;;567793;251;24096;-79
2022/11/24 00:20:26;;;;;;;57.73;32.97;;;-0.20;99.90;-1.10;99739;;;;567537;251;24090;-80
2022/11/24 00:22:53;;;;;;;59.10;32.30;;;-0.10;99.90;-1.10;99741;;;;567515;252;24098;-80
2022/11/24 00:25:24;;;;;;;50.27;31.83;;;-0.10;99.90;-1.10;99747;;;;567653;251;24110;-81
2022/11/24 00:27:49;;;;;;;51.13;31.93;;;-0.10;99.90;-1.10;99747;;;;567445;251;24138;-82
2022/11/24 00:30:17;;;;;;;52.07;30.40;;;-0.10;99.90;-1.10;99744;;;;567534;251;24127;-82
2022/11/24 00:32:44;;;;;;;49.83;31.60;;;-0.10;99.90;-1.20;99740;;;;567609;251;24150;-83
2022/11/24 00:35:12;;;;;;;55.90;31.40;;;-0.20;99.90;-1.20;99736;;;;567635;251;24104;-82
2022/11/24 00:37:40;;;;;;;51.40;32.43;;;-0.20;99.90;-1.20;99741;;;;567369;252;24121;-83
2022/11/24 00:40:12;;;;;;;54.10;31.40;;;-0.20;99.90;-1.20;99746;;;;567312;252;24122;-80
2022/11/24 00:42:37;;;;;;;53.63;32.67;;;-0.40;99.90;-1.30;99736;;;;567159;253;24091;-81
2022/11/24 00:45:05;;;;;;;49.47;32.17;;;-0.20;99.90;-1.20;99735;;;;567322;252;24094;-79
2022/11/24 00:47:36;;;;;;;52.63;31.17;;;-0.30;99.90;-1.20;99734;;;;567363;252;24100;-80
2022/11/24 00:50:00;;;;;;;56.97;36.22;;;-0.20;99.90;-1.20;99748;;;;562286;253;35265;-82
2022/11/24 00:52:32;;;;;;;51.07;30.70;;;-0.20;99.90;-1.20;99752;;;;567354;252;24151;-83
2022/11/24 00:54:56;;;;;;;51.87;31.27;;;-0.20;99.90;-1.10;99757;;;;567211;252;24095;-83
2022/11/24 00:57:24;;;;;;;51.60;30.03;;;-0.20;99.90;-1.10;99759;;;;567351;252;24094;-83
2022/11/24 00:59:52;;;;;;;51.67;31.10;;;-0.10;99.90;-1.10;99756;;;;567313;252;24103;-83
2022/11/24 01:02:20;;;;;;;55.83;31.27;;;-0.10;99.90;-1.10;99756;;;;567270;252;24203;-82
2022/11/24 01:04:48;;;;;;;55.00;34.07;;;-0.10;99.90;-1.10;99752;;;;567322;252;24121;-79
2022/11/24 01:07:16;;;;;;;52.87;33.23;;;-0.10;99.90;-1.10;99751;;;;567812;251;24100;-79
2022/11/24 01:09:44;;;;;;;53.20;33.03;;;-0.10;99.90;-1.10;99754;;;;567507;251;24092;-79
2022/11/24 01:12:11;;;;;;;59.97;35.33;;;-0.10;99.90;-1.10;99761;;;;568092;251;24106;-81
2022/11/24 01:14:40;;;;;;;53.27;32.33;;;-0.10;99.90;-1.10;99756;;;;568595;248;24108;-80
2022/11/24 01:17:08;;;;;;;62.30;36.43;;;-0.10;99.90;-1.00;99756;;;;568235;251;24151;-80
2022/11/24 01:19:37;;;;;;;55.93;35.63;;;-0.10;99.90;-1.10;99756;;;;568130;251;24104;-80
2022/11/24 01:22:05;;;;;;;67.23;35.17;;;-0.10;99.90;-1.10;99754;;;;567828;251;24127;-81
2022/11/24 01:24:35;;;;;;;55.77;34.73;;;-0.10;99.90;-1.10;99754;;;;567856;251;24106;-82
2022/11/24 01:27:00;;;;;;;59.80;32.60;;;0.00;99.90;-1.00;99754;;;;567521;252;25162;-79
2022/11/24 01:29:29;;;;;;;58.97;33.17;;;0.00;99.90;-1.00;99756;;;;567733;251;24159;-78
2022/11/24 01:32:01;;;;;;;60.67;33.47;;;0.00;99.90;-1.00;99755;;;;567536;251;24097;-78
2022/11/24 01:34:28;;;;;;;56.17;33.07;;;0.00;99.90;-0.90;99757;;;;567176;252;24105;-79
2022/11/24 01:36:53;;;;;;;63.50;35.03;;;0.10;99.90;-0.90;99754;;;;567186;252;24078;-79
2022/11/24 01:39:21;;;;;;;60.40;34.33;;;0.10;99.90;-0.90;99747;;;;567561;251;24116;-77
2022/11/24 01:41:52;;;;;;;60.10;35.07;;;0.10;99.90;-0.90;99760;;;;567552;251;24143;-78
2022/11/24 01:44:25;;;;;;;59.83;33.63;;;0.10;99.90;-1.00;99760;;;;567418;252;24110;-83
2022/11/24 01:47:02;;;;;;;60.73;32.77;;;0.10;99.90;-1.00;99767;;;;567564;251;24094;-80
2022/11/24 01:49:44;;;;;;;58.63;33.77;;;0.00;99.90;-1.10;99765;;;;567348;252;24089;-79
2022/11/24 01:52:16;;;;;;;63.47;32.73;;;-0.10;99.90;-1.10;99761;;;;567198;253;24124;-80
2022/11/24 01:54:44;;;;;;;65.43;35.80;;;-0.10;99.90;-1.20;99757;;;;566699;252;24133;-80
2022/11/24 01:57:18;;;;;;;60.70;33.73;;;-0.20;99.90;-1.20;99762;;;;566760;253;24096;-80
2022/11/24 01:59:46;;;;;;;61.87;34.13;;;-0.20;99.90;-1.20;99761;;;;566822;253;24097;-80
2022/11/24 02:02:14;;;;;;;56.80;31.87;;;-0.20;99.90;-1.10;99759;;;;567188;252;24097;-79
2022/11/24 02:04:38;;;;;;;68.03;33.03;;;-0.20;99.90;-1.10;99754;;;;567127;252;24103;-79
2022/11/24 02:07:06;;;;;;;68.83;35.20;;;-0.10;99.90;-1.10;99764;;;;567723;251;24131;-80
2022/11/24 02:09:40;;;;;;;59.87;33.80;;;-0.10;99.90;-1.10;99766;;;;567299;252;24119;-80
2022/11/24 02:12:09;;;;;;;59.03;35.47;;;-0.10;99.90;-1.20;99767;;;;566588;253;24094;-83
2022/11/24 02:14:39;;;;;;;61.60;34.10;;;-0.20;99.90;-1.20;99760;;;;567324;249;24112;-81
2022/11/24 02:17:05;;;;;;;72.30;37.07;;;-0.20;99.90;-1.20;99759;;;;567166;252;24103;-81
2022/11/24 02:19:39;;;;;;;63.53;34.40;;;-0.20;99.90;-1.20;99773;;;;567361;252;24089;-82
2022/11/24 02:22:40;;;;;;;91.93;36.40;;;-0.30;99.90;-1.20;99766;;;;567528;251;24112;-82
2022/11/24 02:25:26;;;;;;;62.63;33.37;;;-0.20;99.90;-1.20;99761;;;;568848;252;24069;-78
2022/11/24 02:27:55;;;;;;;58.60;31.53;;;-0.20;99.90;-1.20;99769;;;;567750;252;24097;-79
2022/11/24 02:30:23;;;;;;;55.87;32.07;;;-0.20;99.90;-1.30;99768;;;;568035;252;24104;-79
2022/11/24 02:32:54;;;;;;;66.65;37.17;;;-0.20;99.90;-1.30;99762;;;;563037;251;35316;-79
2022/11/24 02:35:19;;;;;;;52.60;31.63;;;-0.30;99.90;-1.30;99759;;;;567844;251;24112;-80
2022/11/24 02:37:50;;;;;;;54.70;30.63;;;-0.30;99.90;-1.30;99765;;;;567884;251;24096;-81
2022/11/24 02:40:16;;;;;;;77.50;31.93;;;-0.30;99.90;-1.30;99769;;;;567652;252;25127;-83
2022/11/24 02:42:46;;;;;;;100.67;33.90;;;-0.30;99.90;-1.30;99768;;;;567440;252;24178;-82
2022/11/24 02:45:18;;;;;;;79.87;34.87;;;-0.30;99.90;-1.30;99767;;;;567900;252;24097;-82
2022/11/24 02:47:44;;;;;;;65.77;32.93;;;-0.30;99.90;-1.30;99769;;;;567644;252;24102;-82
2022/11/24 02:50:15;;;;;;;97.33;34.03;;;-0.30;99.90;-1.30;99766;;;;567499;252;24093;-83
2022/11/24 02:52:44;;;;;;;94.87;34.20;;;-0.30;99.90;-1.30;99764;;;;567554;251;24102;-81
2022/11/24 02:55:13;;;;;;;68.23;33.03;;;-0.30;99.90;-1.40;99764;;;;567553;251;25154;-78
2022/11/24 02:57:41;;;;;;;68.30;34.90;;;-0.40;99.90;-1.40;99754;;;;567576;251;24148;-82
2022/11/24 03:00:12;;;;;;;61.47;35.10;;;-0.40;99.90;-1.30;99758;;;;567419;251;24127;-81
2022/11/24 03:02:40;;;;;;;97.13;36.20;;;-0.30;99.90;-1.30;99755;;;;567333;252;24141;-82
2022/11/24 03:05:12;;;;;;;112.33;35.73;;;-0.30;99.90;-1.30;99753;;;;567360;252;24172;-81
2022/11/24 03:07:37;;;;;;;93.00;35.63;;;-0.30;99.90;-1.30;99750;;;;567316;251;24086;-78
2022/11/24 03:10:05;;;;;;;155.67;37.30;;;-0.30;99.90;-1.30;99750;;;;567452;251;24090;-82
2022/11/24 03:12:33;;;;;;;135.23;37.17;;;-0.30;99.90;-1.30;99746;;;;567714;249;24116;-82
2022/11/24 03:15:02;;;;;;;110.93;35.70;;;-0.30;99.90;-1.30;99750;;;;567808;251;25156;-81
2022/11/24 03:17:30;;;;;;;125.18;41.78;;;-0.30;99.90;-1.30;99742;;;;562250;252;46223;-78
2022/11/24 03:20:00;;;;;;;95.30;36.07;;;-0.30;99.90;-1.30;99745;;;;567662;251;24168;-78
2022/11/24 03:22:29;;;;;;;115.55;41.03;;;-0.30;99.90;-1.40;99738;;;;562317;252;46208;-80
2022/11/24 03:24:58;;;;;;;102.70;36.67;;;-0.30;99.90;-1.40;99739;;;;567554;252;24095;-82
2022/11/24 03:27:22;;;;;;;97.28;40.05;;;-0.30;99.90;-1.40;99754;;;;562318;252;35322;-79
2022/11/24 03:29:50;;;;;;;76.37;34.67;;;-0.30;99.90;-1.30;99751;;;;567232;252;24128;-78
2022/11/24 03:32:19;;;;;;;93.10;37.13;;;-0.30;99.90;-1.30;99754;;;;567242;252;24157;-79
2022/11/24 03:34:47;;;;;;;137.67;34.70;;;-0.30;99.90;-1.30;99755;;;;567733;251;24080;-78
2022/11/24 03:37:15;;;;;;;127.53;34.90;;;-0.20;99.90;-1.30;99764;;;;568918;251;24097;-78
2022/11/24 03:39:44;;;;;;;81.57;36.17;;;-0.30;99.90;-1.30;99755;;;;568317;251;24094;-77
2022/11/24 03:42:11;;;;;;;69.73;35.33;;;-0.30;99.90;-1.30;99755;;;;567962;251;24118;-77
2022/11/24 03:44:39;;;;;;;78.73;34.00;;;-0.30;99.90;-1.20;99748;;;;567869;251;24131;-79
2022/11/24 03:47:11;;;;;;;73.83;35.57;;;-0.20;99.90;-1.20;99761;;;;567770;251;25194;-79
2022/11/24 03:49:40;;;;;;;70.93;34.40;;;-0.20;99.90;-1.20;99756;;;;567628;252;24087;-78
2022/11/24 03:52:04;;;;;;;64.43;33.17;;;-0.20;99.90;-1.10;99768;;;;567623;252;24129;-79
2022/11/24 03:54:35;;;;;;;71.83;35.73;;;-0.10;99.90;-1.10;99772;;;;567575;251;24105;-82
2022/11/24 03:57:04;;;;;;;72.90;34.73;;;-0.10;99.90;-1.00;99781;;;;567373;252;24089;-82
2022/11/24 03:59:28;;;;;;;126.40;34.40;;;0.00;99.90;-1.00;99782;;;;567451;252;24195;-82
2022/11/24 04:01:57;;;;;;;81.30;34.60;;;0.00;99.90;-1.10;99790;;;;567609;251;24103;-80
2022/11/24 04:04:25;;;;;;;79.90;31.57;;;0.00;99.90;-1.00;99791;;;;567658;251;24103;-82
2022/11/24 04:06:53;;;;;;;94.27;32.23;;;0.00;99.90;-1.10;99803;;;;567658;251;24094;-78
2022/11/24 04:09:20;;;;;;;82.90;30.33;;;0.00;99.90;-1.10;99802;;;;568091;251;24114;-79
2022/11/24 04:14:35;;;;;;;107.57;32.17;;;-0.10;99.90;-1.10;99809;;;;567407;249;24121;-78
2022/11/24 04:17:06;;;;;;;89.07;32.93;;;-0.10;99.90;-1.10;99808;;;;567784;251;24108;-83
2022/11/24 04:19:31;;;;;;;176.10;36.43;;;-0.10;99.90;-1.10;99819;;;;567475;252;24119;-80
2022/11/24 04:21:59;;;;;;;100.60;32.83;;;-0.10;99.90;-1.10;99809;;;;567883;251;24104;-82
2022/11/24 04:24:27;;;;;;;172.40;36.97;;;-0.10;99.90;-1.10;99830;;;;567343;251;24116;-81
2022/11/24 04:26:56;;;;;;;171.03;36.87;;;-0.20;99.90;-1.20;99831;;;;567783;251;24089;-81
2022/11/24 04:29:24;;;;;;;143.97;35.23;;;-0.20;99.90;-1.20;99829;;;;567390;251;24097;-81
2022/11/24 04:31:52;;;;;;;147.87;38.87;;;-0.20;99.90;-1.30;99841;;;;567847;251;24128;-80
2022/11/24 04:34:23;;;;;;;111.93;35.73;;;-0.30;99.90;-1.40;99843;;;;567474;251;24098;-82
2022/11/24 04:36:48;;;;;;;75.60;33.60;;;-0.30;99.90;-1.40;99835;;;;567694;252;24134;-79
2022/11/24 04:39:19;;;;;;;75.80;33.07;;;-0.40;99.90;-1.40;99837;;;;567397;251;24109;-79
2022/11/24 04:41:46;;;;;;;72.57;34.73;;;-0.40;99.90;-1.30;99844;;;;566877;252;24094;-79
2022/11/24 04:44:11;;;;;;;62.67;30.70;;;-0.30;99.90;-1.30;99830;;;;567094;252;24101;-80
2022/11/24 04:46:40;;;;;;;61.33;31.40;;;-0.20;99.90;-1.20;99822;;;;567950;251;24080;-81
2022/11/24 04:49:10;;;;;;;53.27;29.57;;;-0.30;99.90;-1.20;99818;;;;568450;251;24126;-80
2022/11/24 04:51:36;;;;;;;59.80;30.67;;;-0.20;99.90;-1.20;99811;;;;568043;253;24087;-81
2022/11/24 04:54:08;;;;;;;55.70;26.27;;;-0.10;99.90;-1.10;99810;;;;568101;251;24103;-79
2022/11/24 04:56:37;;;;;;;50.17;27.43;;;-0.10;99.90;-1.10;99825;;;;567472;252;24147;-80
2022/11/24 04:59:05;;;;;;;48.87;24.90;;;-0.10;99.90;-1.00;99826;;;;567835;251;24137;-80
2022/11/24 05:01:36;;;;;;;59.87;29.27;;;0.00;99.90;-1.00;99829;;;;567712;251;25170;-79
2022/11/24 05:04:01;;;;;;;59.83;27.67;;;0.00;99.90;-1.00;99826;;;;567250;252;24100;-78
2022/11/24 05:06:29;;;;;;;56.07;29.03;;;0.00;99.90;-1.00;99826;;;;567476;251;24139;-78
2022/11/24 05:08:57;;;;;;;50.73;25.63;;;0.00;99.90;-1.00;99834;;;;567926;251;24123;-80
2022/11/24 05:11:25;;;;;;;74.67;27.97;;;0.00;99.90;-1.00;99838;;;;567474;251;24120;-80
2022/11/24 05:13:54;;;;;;;56.40;28.17;;;0.00;99.90;-1.00;99849;;;;567445;249;24129;-80
2022/11/24 05:16:25;;;;;;;60.37;26.97;;;0.00;99.90;-1.00;99838;;;;567487;251;24110;-80
2022/11/24 05:18:49;;;;;;;57.23;28.60;;;0.10;99.90;-1.00;99849;;;;567250;252;24132;-81
2022/11/24 05:21:17;;;;;;;53.67;25.03;;;0.10;99.90;-1.00;99842;;;;567467;251;24114;-81
2022/11/24 05:23:46;;;;;;;50.03;26.83;;;0.10;99.90;-1.00;99849;;;;567222;251;24116;-79
2022/11/24 05:26:14;;;;;;;52.27;27.57;;;0.00;99.90;-1.00;99844;;;;567206;252;24103;-79
2022/11/24 05:28:42;;;;;;;46.97;25.80;;;0.10;99.90;-1.00;99847;;;;567230;252;24101;-80
2022/11/24 05:31:10;;;;;;;49.37;27.20;;;0.10;99.90;-0.90;99855;;;;567218;252;24117;-81
2022/11/24 05:33:37;;;;;;;47.90;25.50;;;0.10;99.90;-0.90;99852;;;;567328;252;24126;-78
2022/11/24 05:36:10;;;;;;;44.63;24.93;;;0.10;99.90;-0.90;99849;;;;567376;252;24098;-82
2022/11/24 05:38:35;;;;;;;56.33;25.60;;;0.20;99.90;-0.90;99850;;;;567363;252;25154;-79
2022/11/24 05:41:06;;;;;;;49.67;27.40;;;0.10;99.90;-0.90;99864;;;;567422;251;24150;-81
2022/11/24 05:43:31;;;;;;;41.63;24.93;;;0.10;99.90;-0.80;99860;;;;566783;252;24144;-79
2022/11/24 05:45:59;;;;;;;45.77;25.87;;;0.20;99.90;-0.80;99849;;;;567234;252;24106;-81
2022/11/24 05:48:26;;;;;;;47.33;25.70;;;0.20;99.90;-0.80;99847;;;;567090;253;24132;-82
2022/11/24 05:50:55;;;;;;;44.20;24.53;;;0.30;99.90;-0.80;99845;;;;567242;252;24093;-81
2022/11/24 05:53:26;;;;;;;46.57;24.83;;;0.20;99.90;-0.80;99844;;;;567190;252;24111;-81
2022/11/24 05:55:51;;;;;;;48.90;25.33;;;0.30;99.90;-0.80;99845;;;;566984;253;24111;-81
2022/11/24 05:58:22;;;;;;;49.60;28.90;;;0.20;99.90;-0.80;99840;;;;562990;251;46075;-83
2022/11/24 06:00:47;;;;;;;46.90;25.40;;;0.30;99.90;-0.80;99843;;;;568022;252;24100;-77
2022/11/24 06:03:15;;;;;;;44.63;23.33;;;0.20;99.90;-0.70;99834;;;;568062;251;24119;-80
2022/11/24 06:05:43;;;;;;;47.60;25.00;;;0.30;99.90;-0.70;99840;;;;567968;251;24140;-80
2022/11/24 06:08:11;;;;;;;45.50;24.43;;;0.30;99.90;-0.80;99844;;;;567707;251;24119;-79
2022/11/24 06:10:39;;;;;;;44.50;24.90;;;0.30;99.90;-0.80;99845;;;;567736;251;24098;-79
2022/11/24 06:13:07;;;;;;;62.10;25.93;;;0.30;99.90;-0.80;99846;;;;567679;249;24085;-81
2022/11/24 06:15:36;;;;;;;53.60;24.53;;;0.30;99.90;-0.80;99852;;;;567669;251;25146;-81
2022/11/24 06:18:02;;;;;;;55.77;27.07;;;0.20;99.90;-0.80;99865;;;;567350;252;24174;-81
2022/11/24 06:20:30;;;;;;;55.50;27.13;;;0.20;99.90;-0.90;99867;;;;567439;251;24113;-78
2022/11/24 06:22:59;;;;;;;50.67;25.60;;;0.20;99.90;-0.90;99864;;;;567485;251;24120;-78
2022/11/24 06:25:27;;;;;;;50.00;25.10;;;0.20;99.90;-0.90;99868;;;;567443;251;24115;-78
2022/11/24 06:27:55;;;;;;;56.93;26.23;;;0.20;99.90;-0.90;99879;;;;567455;251;24101;-78
2022/11/24 06:30:23;;;;;;;52.80;27.30;;;0.20;99.90;-0.90;99875;;;;567567;251;24107;-82
2022/11/24 06:32:51;;;;;;;56.53;27.03;;;0.10;99.90;-0.90;99888;;;;567517;251;24112;-82
2022/11/24 06:35:19;;;;;;;66.27;27.47;;;0.10;99.90;-1.00;99886;;;;567154;252;24112;-83
2022/11/24 06:37:47;;;;;;;62.83;26.93;;;0.10;99.90;-1.00;99892;;;;567242;252;24095;-83
2022/11/24 06:40:15;;;;;;;51.10;27.07;;;0.00;99.90;-1.10;99885;;;;567440;251;24105;-80
2022/11/24 06:42:43;;;;;;;79.17;30.07;;;-0.10;99.90;-1.20;99889;;;;567201;252;24112;-79
2022/11/24 06:45:11;;;;;;;57.37;28.03;;;-0.10;99.90;-1.20;99893;;;;566840;253;24089;-80
2022/11/24 06:47:39;;;;;;;139.37;32.63;;;-0.20;99.90;-1.20;99888;;;;567329;252;24122;-81
2022/11/24 06:50:10;;;;;;;101.93;33.60;;;-0.20;99.90;-1.30;99890;;;;567973;251;24103;-80
2022/11/24 06:52:35;;;;;;;97.33;35.03;;;-0.30;99.90;-1.40;99886;;;;567458;252;24140;-83
2022/11/24 06:55:02;;;;;;;168.17;35.00;;;-0.30;99.90;-1.40;99901;;;;567303;252;24111;-83
2022/11/24 06:57:31;;;;;;;145.93;36.53;;;-0.30;99.90;-1.50;99896;;;;567670;251;24120;-80
2022/11/24 06:59:58;;;;;;;205.37;35.07;;;-0.40;99.90;-1.50;99900;;;;567268;252;24103;-81
2022/11/24 07:02:27;;;;;;;80.10;32.07;;;-0.50;99.90;-1.60;99900;;;;567650;251;25135;-81
2022/11/24 07:04:55;;;;;;;93.50;33.70;;;-0.50;99.90;-1.50;99889;;;;567381;251;24115;-80
2022/11/24 07:07:23;;;;;;;188.13;36.77;;;-0.50;99.90;-1.50;99898;;;;567191;252;24089;-81
2022/11/24 07:09:51;;;;;;;93.70;34.60;;;-0.50;99.90;-1.50;99914;;;;568360;251;24105;-78
2022/11/24 07:12:18;;;;;;;203.73;34.73;;;-0.50;99.90;-1.50;99906;;;;568854;251;24096;-79
2022/11/24 07:14:46;;;;;;;87.03;34.43;;;-0.50;99.90;-1.50;99919;;;;568042;249;24077;-79
2022/11/24 07:17:14;;;;;;;75.63;34.73;;;-0.40;99.90;-1.40;99915;;;;567970;251;24139;-79
2022/11/24 07:19:42;;;;;;;126.17;33.20;;;-0.40;99.90;-1.30;99917;;;;567792;251;24149;-80
2022/11/24 07:22:11;;;;;;;79.43;29.00;;;-0.30;99.90;-1.30;99937;;;;568212;251;24086;-82
2022/11/24 07:24:39;;;;;;;76.57;29.77;;;-0.30;99.90;-1.30;99921;;;;567829;251;25149;-79
2022/11/24 07:27:06;;;;;;;65.33;30.77;;;-0.30;99.90;-1.30;99924;;;;567695;251;25159;-80
2022/11/24 07:29:35;;;;;;;63.53;30.53;;;-0.20;99.90;-1.20;99933;;;;567459;251;24143;-82
2022/11/24 07:32:03;;;;;;;63.83;29.37;;;-0.20;99.90;-1.20;99930;;;;567480;251;24152;-82
2022/11/24 07:34:31;;;;;;;82.80;29.00;;;-0.10;99.90;-1.10;99925;;;;567490;251;24115;-83
2022/11/24 07:37:00;;;;;;;78.00;30.70;;;0.00;99.90;-1.10;99925;;;;567448;251;24090;-80
2022/11/24 07:39:27;;;;;;;84.20;29.13;;;-0.10;99.90;-1.10;99936;;;;567674;251;24097;-82
2022/11/24 07:41:55;;;;;;;90.73;29.53;;;0.00;99.90;-1.10;99931;;;;567476;251;24113;-82
2022/11/24 07:44:24;;;;;;;113.83;31.47;;;-0.10;99.90;-1.20;99931;;;;567437;251;24121;-78
2022/11/24 07:46:52;;;;;;;107.27;32.10;;;-0.20;99.90;-1.20;99925;;;;567671;251;24117;-80
2022/11/24 07:49:20;;;;;;;78.53;34.13;;;-0.10;99.90;-1.20;99927;;;;567225;252;24086;-80
2022/11/24 07:51:48;;;;;;;66.37;29.17;;;-0.10;99.90;-1.10;99925;;;;567226;252;24116;-80
2022/11/24 07:54:16;;;;;;;83.63;32.07;;;-0.10;99.90;-1.00;99935;;;;567232;252;24101;-81
2022/11/24 07:56:44;;;;;;;71.67;29.50;;;0.00;99.90;-0.90;99925;;;;567235;252;24107;-80
2022/11/24 07:59:12;;;;;;;64.53;29.67;;;0.00;99.90;-0.90;99922;;;;567184;252;24088;-80
2022/11/24 08:01:41;;;;;;;66.47;29.53;;;0.20;99.90;-0.80;99917;;;;567263;252;24104;-82
2022/11/24 08:04:09;;;;;;;60.37;28.07;;;0.20;99.90;-0.70;99923;;;;567244;252;24093;-81
2022/11/24 08:06:36;;;;;;;79.63;28.97;;;0.30;99.90;-0.70;99926;;;;567191;252;24102;-80
2022/11/24 08:09:04;;;;;;;65.30;30.47;;;0.30;99.90;-0.60;99922;;;;567402;251;24102;-83
2022/11/24 08:11:33;;;;;;;56.90;27.43;;;0.40;99.90;-0.60;99936;;;;567202;252;24111;-81
2022/11/24 08:14:00;;;;;;;64.40;28.83;;;0.40;99.90;-0.50;99934;;;;567332;249;24102;-80
2022/11/24 08:16:28;;;;;;;63.97;29.23;;;0.50;99.90;-0.50;99938;;;;567359;251;25144;-82
2022/11/24 08:18:56;;;;;;;79.40;29.03;;;0.50;99.90;-0.50;99944;;;;567219;252;24132;-81
2022/11/24 08:21:28;;;;;;;92.90;31.57;;;0.60;99.90;-0.50;99945;;;;567867;251;24095;-82
2022/11/24 08:23:54;;;;;;;95.03;32.07;;;0.50;99.90;-0.60;99952;;;;568013;252;24093;-79
2022/11/24 08:26:23;;;;;;;74.47;27.27;;;0.50;99.90;-0.70;99944;;;;568005;252;24170;-79
2022/11/24 08:28:50;;;;;;;92.00;30.97;;;0.40;99.90;-0.70;99948;;;;568005;251;24077;-82
2022/11/24 08:31:19;;;;;;;83.20;31.33;;;0.30;99.90;-0.70;99943;;;;567676;252;24100;-81
2022/11/24 08:33:50;;;;;;;106.97;31.73;;;0.30;99.90;-0.80;99943;;;;567756;251;24122;-81
2022/11/24 08:36:15;;;;;;;80.27;31.63;;;0.30;99.90;-0.80;99935;;;;567436;251;24117;-81
2022/11/24 08:38:49;;;;;;;119.15;35.75;;;0.20;99.90;-0.80;99938;;;;537355;259;35660;-81
2022/11/24 08:41:14;;;;;;;90.70;31.17;;;0.20;99.90;-0.80;99932;;;;567287;253;24089;-81
2022/11/24 08:43:42;;;;;;;88.23;31.97;;;0.20;99.90;-0.80;99938;;;;567491;251;24107;-82
2022/11/24 08:46:15;;;;;;;93.90;30.73;;;0.20;99.90;-0.80;99930;;;;567453;251;24124;-82
2022/11/24 08:48:41;;;;;;;80.30;29.43;;;0.20;99.90;-0.80;99927;;;;567298;252;24103;-80
2022/11/24 08:51:12;;;;;;;68.87;29.77;;;0.20;99.90;-0.80;99935;;;;567474;251;24135;-81
2022/11/24 08:53:44;;;;;;;64.80;29.93;;;0.20;99.90;-0.70;99947;;;;567217;251;24107;-83
2022/11/24 08:56:08;;;;;;;61.17;29.70;;;0.30;99.90;-0.60;99939;;;;567060;252;24089;-82
2022/11/24 08:58:36;;;;;;;71.90;31.03;;;0.30;99.90;-0.50;99953;;;;567196;251;24108;-83
2022/11/24 09:01:10;;;;;;;71.40;30.70;;;0.40;99.90;-0.50;99950;;;;567205;252;24127;-83
2022/11/24 09:03:38;;;;;;;66.00;31.23;;;0.50;99.90;-0.50;99951;;;;567214;252;25126;-82
2022/11/24 09:06:05;;;;;;;81.77;30.73;;;0.50;99.90;-0.40;99947;;;;567188;252;24126;-80
2022/11/24 09:08:36;;;;;;;61.90;30.03;;;0.60;99.90;-0.40;99955;;;;567134;251;24088;-81
2022/11/24 09:11:04;;;;;;;89.00;29.43;;;0.60;99.90;-0.40;99947;;;;566968;252;24118;-80
2022/11/24 09:13:32;;;;;;;76.23;31.03;;;0.60;99.90;-0.40;99948;;;;567531;249;24116;-79
2022/11/24 09:16:07;;;;;;;92.60;31.63;;;0.60;99.90;-0.40;99958;;;;567256;252;24114;-79
2022/11/24 09:18:35;;;;;;;76.13;31.60;;;0.60;99.90;-0.40;99968;;;;567448;251;24130;-80
2022/11/24 09:21:11;;;;;;;129.87;35.27;;;0.60;99.90;-0.40;99962;;;;567659;251;24105;-80
2022/11/24 09:23:42;;;;;;;118.70;34.23;;;0.60;99.90;-0.40;99959;;;;566946;252;25161;-81
2022/11/24 09:26:12;;;;;;;150.17;35.20;;;0.60;99.90;-0.40;99966;;;;566994;253;24142;-79
2022/11/24 09:28:41;;;;;;;132.23;35.40;;;0.60;99.90;-0.50;99957;;;;567533;251;24109;-81
2022/11/24 09:31:09;;;;;;;119.23;33.17;;;0.50;99.90;-0.50;99954;;;;567243;252;24141;-81
2022/11/24 09:33:37;;;;;;;101.87;33.03;;;0.60;99.90;-0.50;99958;;;;568189;251;24100;-79
2022/11/24 09:36:05;;;;;;;80.00;32.07;;;0.60;99.90;-0.40;99966;;;;568328;251;24106;-80
2022/11/24 09:38:33;;;;;;;215.93;48.03;;;0.60;99.90;-0.30;99969;;;;568009;251;24110;-80
2022/11/24 09:41:20;;;;;;;91.83;31.57;;;0.70;99.90;-0.30;99963;;;;567910;252;24096;-80
2022/11/24 09:44:08;;;;;;;73.73;31.30;;;0.70;99.90;-0.20;99968;;;;567258;252;24111;-80
2022/11/24 09:46:39;;;;;;;79.17;31.23;;;0.80;99.90;-0.10;99969;;;;567790;251;24138;-79
2022/11/24 09:49:07;;;;;;;76.93;30.00;;;0.90;99.90;-0.10;99967;;;;565651;253;24147;-82
2022/11/24 09:51:35;;;;;;;66.80;30.17;;;0.90;99.90;-0.10;99982;;;;567334;252;24098;-79
2022/11/24 09:54:03;;;;;;;69.37;30.30;;;0.90;99.90;-0.10;99974;;;;567371;252;24098;-81
2022/11/24 09:56:37;;;;;;;80.27;30.60;;;0.90;99.90;-0.10;99967;;;;567185;252;24074;-80
2022/11/24 09:59:16;;;;;;;63.40;27.10;;;0.90;99.90;-0.10;99977;;;;567263;252;24078;-80
2022/11/24 10:01:48;;;;;;;62.30;25.30;;;0.90;99.90;-0.10;99984;;;;567463;251;24075;-80
2022/11/24 10:04:19;;;;;;;70.63;31.17;;;0.90;99.90;-0.10;99993;;;;567011;252;25139;-80
2022/11/24 10:07:05;;;;;;;65.07;31.10;;;0.90;99.90;-0.20;99977;;;;567387;251;24101;-80
2022/11/24 10:10:03;;;;;;;73.23;31.20;;;0.90;99.90;-0.20;99978;;;;567273;252;24117;-79
2022/11/24 10:12:46;;;;;;;82.47;32.80;;;0.80;99.90;-0.20;99977;;;;567181;249;24103;-80
2022/11/24 10:15:24;;;;;;;69.47;32.53;;;0.80;99.90;-0.20;99971;;;;566809;252;24099;-82
2022/11/24 10:18:24;;;;;;;82.90;33.63;;;0.80;99.90;-0.20;99968;;;;567238;252;24154;-80
2022/11/24 10:21:23;;;;;;;72.03;32.40;;;0.80;99.90;-0.20;99971;;;;567408;251;24121;-82
2022/11/24 10:24:08;;;;;;;76.17;31.57;;;0.80;99.90;-0.30;99958;;;;567435;252;24109;-81
2022/11/24 10:26:40;;;;;;;67.57;28.20;;;0.80;99.90;-0.20;99958;;;;567247;252;24107;-82
2022/11/24 10:29:26;;;;;;;56.67;28.80;;;0.80;99.90;-0.20;99965;;;;567072;252;24105;-81
2022/11/24 10:31:55;;;;;;;65.10;29.80;;;0.80;99.90;-0.20;99966;;;;567105;253;24131;-82
2022/11/24 10:34:35;;;;;;;59.13;29.00;;;0.80;99.90;-0.20;99968;;;;567255;252;24088;-82
2022/11/24 10:37:25;;;;;;;62.67;30.63;;;0.80;99.90;-0.20;99967;;;;567617;251;24116;-83
2022/11/24 10:40:07;;;;;;;60.37;29.10;;;0.80;99.90;-0.30;99970;;;;567200;252;24166;-79
2022/11/24 10:42:39;;;;;;;50.63;25.53;;;0.70;99.90;-0.30;99971;;;;567360;252;25142;-82
2022/11/24 10:45:18;;;;;;;51.93;25.77;;;0.70;99.90;-0.30;99971;;;;568173;251;24092;-82
2022/11/24 10:47:50;;;;;;;50.50;24.73;;;0.60;99.90;-0.40;99969;;;;568327;251;24166;-82
2022/11/24 10:50:23;;;;;;;56.63;27.43;;;0.60;99.90;-0.40;99970;;;;567457;252;24085;-81
2022/11/24 10:53:24;;;;;;;59.67;28.50;;;0.60;99.90;-0.40;99968;;;;567648;252;24139;-80
2022/11/24 10:55:58;;;;;;;56.87;27.57;;;0.60;99.90;-0.30;99971;;;;567559;252;24155;-82
2022/11/24 10:58:29;;;;;;;58.57;27.00;;;0.70;99.90;-0.30;99975;;;;567525;251;24098;-82
2022/11/24 11:01:01;;;;;;;68.83;31.33;;;0.80;99.90;-0.20;99971;;;;567454;251;24104;-82
2022/11/24 11:03:29;;;;;;;60.17;32.23;;;0.70;99.90;-0.30;99966;;;;566439;252;24119;-82
2022/11/24 11:06:00;;;;;;;78.50;34.47;;;0.70;99.90;-0.30;99966;;;;566807;252;24113;-81
2022/11/24 11:08:29;;;;;;;71.40;32.87;;;0.70;99.90;-0.30;99975;;;;567249;252;24089;-80
2022/11/24 11:11:27;;;;;;;81.87;33.50;;;0.70;99.90;-0.30;99961;;;;567121;252;24094;-81
2022/11/24 11:14:01;;;;;;;79.33;33.77;;;0.70;99.90;-0.20;99969;;;;567442;249;24109;-81
2022/11/24 11:16:35;;;;;;;83.33;33.97;;;0.70;99.90;-0.10;99964;;;;567590;252;24180;-81
2022/11/24 11:19:26;;;;;;;74.10;32.07;;;0.80;99.90;0.00;99962;;;;567184;251;24158;-81